Bei Facebook empfehlenBei Twitter postenGoogle plusPinterest

Das Wetter im Erzgebirge am 06.03.2016

Wetter und Klima am 06.03.2016 Holzhau im Erzgebirge (630m ü.NN)
Letzte gemessene Temperatur und Uhrzeit der Messung23:45:00 Uhr-1.10 °C
Temperatur (Maximum / Höchstwert) und Uhrzeit der Messung12:45:00 Uhr4.30 °C
Temperatur (Minimum / Tiefstwert) und Uhrzeit der Messung20:45:00-3.40 °C
Errechneter Absolutwert der Temperaturschwankungen zwischen Tmin und Tmax des Tages7.70 K
Errechnete Tagesmitteltemperatur0.56042 °C
Gesamt - Niederschlag des Tages (in flüssiger Form)5.18 Liter / m²
Luftdruck (Maximum / Höchstwert) und Zeitpunkt der Messung23:30:00 Uhr997.90 hPa
Luftdruck (Minimum / Tiefstwert) und Zeitpunkt der Messung03:30:00 Uhr991.40 hPa
Errechneter Absolutwert der Luftdruckschwankungen des Tages6.50 hPa
Höchste gemessene Windgeschwindigkeit und Uhrzeit der Messung17:15:00 Uhr7.56 km/h
Errechnete Windhäufigkeit in Relation zu den Messwerten des Tages12.50000 %
Niedrigste Windkühle (Windchill) und Zeitpunkt der Messung20:45:00 Uhr-3.40 °C
Taupunkt (Maximum / Höchstwert) und Uhrzeit der Messung12:45:00 Uhr2.50 °C
Taupunkt (Minimum / Tiefstwert) und Uhrzeit der Messung20:45:00-5.30 °C
Anzahl der automatisch eingelesenen Messwerte 96

Detaillierte Wetter- und Klima- Messwerte für den 06.03.2016 in Holzhau im Erzgebirge (630m ü.NN)
ZeitTemperaturLuftdruckRel. LuftfeuchteWindWindrichtungWindchillTaupunktNiederschlag l/m²
23:45:00-1.10 °C997.80 hPa90.00 %-2.70 °C5.18
23:30:00-0.70 °C997.90 hPa91.00 %-2.10 °C5.18
23:15:00-0.90 °C997.90 hPa91.00 %-2.30 °C5.18
23:00:00-1.40 °C997.80 hPa90.00 %-3.00 °C5.18
22:45:00-1.90 °C997.90 hPa90.00 %-3.50 °C5.18
22:30:00-2.70 °C997.70 hPa90.00 %-4.30 °C5.18
22:15:00-2.80 °C997.80 hPa89.00 %-4.50 °C5.18
22:00:00-2.60 °C997.70 hPa89.00 %-4.30 °C5.18
21:45:00-2.20 °C997.70 hPa89.00 %-4.00 °C5.18
21:30:00-2.20 °C997.70 hPa89.00 %-4.00 °C5.18
21:15:00-2.70 °C997.50 hPa89.00 %2.52 km/hSSO-2.70 °C-4.40 °C5.18
21:00:00-3.20 °C997.50 hPa88.00 %-5.10 °C5.18
20:45:00-3.40 °C997.40 hPa88.00 %-5.30 °C5.18
20:30:00-2.90 °C997.30 hPa88.00 %-4.80 °C5.18
20:15:00-2.70 °C997.20 hPa87.00 %-4.80 °C5.18
20:00:00-2.70 °C997.10 hPa87.00 %-4.80 °C5.18
19:45:00-2.20 °C997.10 hPa87.00 %-4.30 °C5.18
19:30:00-1.60 °C997.00 hPa87.00 %-3.70 °C5.18
19:15:00-1.10 °C996.80 hPa86.00 %-3.40 °C5.18
19:00:00-0.20 °C996.50 hPa86.00 %-2.50 °C5.18
18:45:000.30 °C996.80 hPa87.00 %-1.60 °C5.18
18:30:000.50 °C997.00 hPa87.00 %4.32 km/hSW0.50 °C-1.40 °C5.18
18:15:000.50 °C996.70 hPa86.00 %-1.60 °C5.18
18:00:000.80 °C996.70 hPa86.00 %-1.30 °C5.18
17:45:000.80 °C996.50 hPa85.00 %-1.40 °C5.18
17:30:001.20 °C996.40 hPa85.00 %5.04 km/hWNW-0.20 °C-1.00 °C5.18
17:15:001.60 °C996.30 hPa84.00 %7.56 km/hW-0.70 °C-0.80 °C5.18
17:00:002.20 °C996.20 hPa83.00 %-0.40 °C5.18
16:45:002.60 °C996.00 hPa82.00 %-0.20 °C5.18
16:30:003.40 °C995.80 hPa83.00 %0.80 °C5.18
16:15:003.40 °C995.70 hPa84.00 %1.00 °C4.66
16:00:003.50 °C995.80 hPa84.00 %1.10 °C4.66
15:45:003.80 °C995.80 hPa83.00 %1.20 °C4.66
15:30:004.20 °C995.50 hPa84.00 %1.70 °C4.66
15:15:004.10 °C995.50 hPa85.00 %1.80 °C4.14
15:00:003.90 °C995.40 hPa85.00 %1.60 °C4.14
14:45:003.80 °C995.50 hPa85.00 %5.04 km/hWSW2.70 °C1.50 °C3.63
14:30:003.80 °C995.30 hPa87.00 %1.80 °C3.63
14:15:002.90 °C995.40 hPa87.00 %1.00 °C3.11
14:00:002.20 °C995.40 hPa86.00 %4.68 km/hSW2.20 °C0.10 °C2.59
13:45:002.50 °C995.20 hPa86.00 %7.56 km/hWSW0.30 °C0.40 °C2.07
13:30:002.90 °C995.20 hPa86.00 %0.80 °C2.07
13:15:003.40 °C995.10 hPa87.00 %1.40 °C1.55
13:00:003.60 °C994.80 hPa87.00 %1.60 °C1.04
12:45:004.30 °C995.10 hPa88.00 %4.32 km/hW4.30 °C2.50 °C0.52
12:30:003.90 °C994.80 hPa90.00 %2.40 °C 
12:15:003.10 °C994.90 hPa90.00 %1.60 °C 
12:00:002.30 °C995.00 hPa91.00 %7.20 km/hSSW0.20 °C1.00 °C 
11:45:001.90 °C994.70 hPa91.00 %0.60 °C 
11:30:002.10 °C994.50 hPa92.00 %7.20 km/hNW0.00 °C0.90 °C 
11:15:001.80 °C994.60 hPa92.00 %5.04 km/hW0.40 °C0.60 °C 
11:00:001.50 °C994.40 hPa93.00 %5.40 km/hWNW-0.10 °C0.50 °C 
10:45:001.30 °C994.30 hPa93.00 %0.30 °C 
10:30:001.00 °C994.10 hPa93.00 %0.00 °C 
10:15:000.80 °C993.80 hPa93.00 %-0.20 °C 
10:00:000.80 °C993.70 hPa94.00 %-0.10 °C 
09:45:000.80 °C993.80 hPa94.00 %-0.10 °C 
09:30:000.50 °C993.40 hPa94.00 %-0.40 °C 
09:15:000.40 °C993.40 hPa94.00 %-0.50 °C 
09:00:000.40 °C993.20 hPa94.00 %-0.50 °C 
08:45:000.30 °C993.30 hPa94.00 %-0.50 °C 
08:30:000.30 °C993.00 hPa94.00 %-0.50 °C 
08:15:000.20 °C992.90 hPa93.00 %-0.80 °C 
08:00:000.10 °C992.70 hPa93.00 %-0.90 °C 
07:45:000.10 °C992.70 hPa93.00 %-0.90 °C 
07:30:00-0.10 °C992.50 hPa93.00 %-1.20 °C 
07:15:00-0.10 °C992.30 hPa93.00 %-1.20 °C 
07:00:00-0.10 °C992.20 hPa93.00 %-1.20 °C 
06:45:00-0.10 °C992.00 hPa93.00 %-1.20 °C 
06:30:00-0.10 °C992.00 hPa92.00 %-1.40 °C 
06:15:00-0.10 °C991.80 hPa92.00 %-1.40 °C 
06:00:000.10 °C991.80 hPa92.00 %-1.00 °C 
05:45:000.10 °C991.80 hPa92.00 %-1.00 °C 
05:30:000.10 °C991.80 hPa92.00 %-1.00 °C 
05:15:000.10 °C991.70 hPa92.00 %-1.00 °C 
05:00:000.10 °C991.80 hPa92.00 %-1.00 °C 
04:45:000.10 °C991.70 hPa92.00 %-1.00 °C 
04:30:000.10 °C991.60 hPa91.00 %-1.20 °C 
04:15:000.10 °C991.50 hPa91.00 %-1.20 °C 
04:00:000.10 °C991.50 hPa91.00 %-1.20 °C 
03:45:000.20 °C991.50 hPa91.00 %-1.10 °C 
03:30:000.20 °C991.40 hPa91.00 %-1.10 °C 
03:15:000.20 °C991.70 hPa91.00 %-1.10 °C 
03:00:000.30 °C991.70 hPa91.00 %-1.00 °C 
02:45:000.40 °C991.80 hPa91.00 %-0.90 °C 
02:30:000.40 °C991.70 hPa91.00 %-0.90 °C 
02:15:000.40 °C991.60 hPa91.00 %-0.90 °C 
02:00:000.40 °C991.70 hPa91.00 %-0.90 °C 
01:45:000.30 °C991.70 hPa91.00 %-1.00 °C 
01:30:000.40 °C991.60 hPa91.00 %-0.90 °C 
01:15:000.40 °C991.80 hPa91.00 %-0.90 °C 
01:00:000.40 °C991.70 hPa90.00 %-1.00 °C 
00:45:000.30 °C991.80 hPa90.00 %-1.10 °C 
00:30:000.20 °C992.30 hPa90.00 %-1.20 °C 
00:15:000.10 °C992.60 hPa90.00 %-1.30 °C 
00:00:000.30 °C992.50 hPa90.00 %-1.10 °C 

Permanenter Link zu dieser Seite: Wetter im Erzgebirge am 06.03.2016
Performance-Info: Die Erstellung der Seite / Statistik(en) / Tabelle(n) erforderte 5 Datenbankserver-Abfrage(n) und dauerte 121 Millisekunden. (Dieser Messwert ist von der Gesamt-Auslastung des Servers abhängig.)
Erzgebirge - Wetter | Erzgebirge - Wetter (Mobilgeräte) | Komplette Klimadatenbank